Time;durP1;ratioP1;P1;durP2;ratioP2;P2;SDS_P1;SDS_P2;PMS_P1;PMS_P2;Temp;Humidity;BMP_temperature;BMP_pressure;BME280_temperature;BME280_humidity;BME280_pressure;Samples;Min_cycle;Max_cycle;Signal;HPM_P1;HPM_P2
2023/08/02 00:01:24;;;;;;;3.30;1.90;;;;;;;15.77;100.00;96505.34;5050384;28;20416;-73
2023/08/02 00:03:51;;;;;;;4.15;1.83;;;;;;;15.78;100.00;96496.25;5050352;28;20775;-73
2023/08/02 00:06:17;;;;;;;4.30;1.98;;;;;;;15.81;100.00;96495.63;5050284;28;20412;-73
2023/08/02 00:08:44;;;;;;;2.75;1.77;;;;;;;15.84;100.00;96495.03;5050267;28;20409;-73
2023/08/02 00:11:15;;;;;;;4.32;2.00;;;;;;;15.88;100.00;96495.97;5050216;28;20902;-73
2023/08/02 00:13:42;;;;;;;2.50;2.00;;;;;;;15.92;100.00;96488.16;5050353;28;20401;-74
2023/08/02 00:16:09;;;;;;;2.85;1.40;;;;;;;15.95;100.00;96489.41;5050328;28;20412;-74
2023/08/02 00:18:35;;;;;;;2.43;1.60;;;;;;;15.96;100.00;96482.97;5050114;28;20489;-74
2023/08/02 00:21:01;;;;;;;3.25;1.77;;;;;;;16.00;100.00;96486.63;5050184;28;20466;-74
2023/08/02 00:23:27;;;;;;;2.47;1.60;;;;;;;16.02;100.00;96485.19;5050082;28;20427;-74
2023/08/02 00:25:55;;;;;;;4.50;2.20;;;;;;;16.03;100.00;96470.75;5050332;28;20421;-74
2023/08/02 00:28:21;;;;;;;3.40;1.85;;;;;;;16.04;100.00;96469.66;5049898;28;20405;-74
2023/08/02 00:30:47;;;;;;;4.57;1.63;;;;;;;16.05;100.00;96467.78;5050138;28;20422;-74
2023/08/02 00:33:14;;;;;;;3.63;1.70;;;;;;;16.06;100.00;96456.81;5050310;28;20447;-74
2023/08/02 00:35:44;;;;;;;3.55;1.90;;;;;;;16.07;100.00;96444.25;5032443;28;20772;-74
2023/08/02 00:38:10;;;;;;;4.35;1.88;;;;;;;16.07;100.00;96442.38;5049918;28;20803;-74
2023/08/02 00:40:36;;;;;;;3.03;1.77;;;;;;;16.07;100.00;96437.03;5050079;28;20405;-74
2023/08/02 00:43:04;;;;;;;1.63;1.40;;;;;;;16.09;100.00;96439.38;5050004;28;20475;-74
2023/08/02 00:45:31;;;;;;;4.07;1.65;;;;;;;16.11;100.00;96442.53;5050309;28;20413;-74
2023/08/02 00:47:57;;;;;;;2.47;1.60;;;;;;;16.10;100.00;96424.94;5032255;28;20401;-74
2023/08/02 00:50:26;;;;;;;3.20;1.80;;;;;;;16.09;100.00;96428.69;5050137;28;20412;-74
2023/08/02 00:52:52;;;;;;;3.55;1.80;;;;;;;16.07;100.00;96420.22;5049894;28;20871;-74
2023/08/02 00:55:18;;;;;;;5.03;2.13;;;;;;;16.05;100.00;96425.06;5032071;28;20421;-74
2023/08/02 00:57:44;;;;;;;2.78;1.70;;;;;;;16.02;100.00;96426.47;5049727;28;20410;-74
2023/08/02 01:00:13;;;;;;;3.35;1.90;;;;;;;15.98;100.00;96414.84;5049957;28;20436;-74
2023/08/02 01:02:39;;;;;;;2.30;1.52;;;;;;;15.95;100.00;96412.00;5049730;28;20417;-74
2023/08/02 01:05:06;;;;;;;2.65;2.08;;;;;;;15.90;100.00;96418.28;5032090;28;20457;-73
2023/08/02 01:07:41;;;;;;;3.40;1.98;;;;;;;15.90;100.00;96422.81;5049638;28;20451;-73
2023/08/02 01:10:12;;;;;;;3.70;1.80;;;;;;;15.86;100.00;96420.75;5050386;28;20878;-74
2023/08/02 01:12:44;;;;;;;4.60;2.30;;;;;;;15.85;100.00;96434.44;5049617;28;20397;-74
2023/08/02 01:15:14;;;;;;;2.77;2.00;;;;;;;15.79;100.00;96440.97;5049817;28;20401;-74
2023/08/02 01:17:43;;;;;;;5.78;2.05;;;;;;;15.75;100.00;96440.81;5041434;28;20455;-74
2023/08/02 01:20:11;;;;;;;3.58;2.00;;;;;;;15.73;100.00;96432.31;5049665;28;20440;-74
2023/08/02 01:22:37;;;;;;;1.95;1.70;;;;;;;15.68;100.00;96419.13;5041499;28;20417;-74
2023/08/02 01:25:04;;;;;;;2.20;1.65;;;;;;;15.67;100.00;96406.09;5049706;28;20762;-74
2023/08/02 01:27:36;;;;;;;3.90;1.85;;;;;;;15.62;100.00;96399.00;5049367;28;20421;-74
2023/08/02 01:30:05;;;;;;;5.28;1.90;;;;;;;15.59;100.00;96401.50;5049758;28;20433;-74
2023/08/02 01:32:31;;;;;;;3.83;2.10;;;;;;;15.58;100.00;96399.91;5050949;28;20506;-73
2023/08/02 01:34:58;;;;;;;3.23;2.00;;;;;;;15.54;100.00;96407.75;5053126;28;20889;-74
2023/08/02 01:37:26;;;;;;;3.58;2.08;;;;;;;15.52;100.00;96398.44;5052902;28;20409;-74
2023/08/02 01:39:52;;;;;;;4.18;1.80;;;;;;;15.53;100.00;96400.84;5053083;28;20433;-74
2023/08/02 01:42:19;;;;;;;3.75;1.83;;;;;;;15.52;100.00;96401.13;5052855;28;20413;-74
2023/08/02 01:44:45;;;;;;;4.70;1.90;;;;;;;15.50;100.00;96399.53;5052895;28;20408;-74
2023/08/02 01:47:11;;;;;;;3.30;1.70;;;;;;;15.50;100.00;96385.41;5052597;28;20414;-74
2023/08/02 01:49:37;;;;;;;4.75;2.22;;;;;;;15.47;100.00;96402.03;5053213;28;20431;-74
2023/08/02 01:52:04;;;;;;;7.20;2.17;;;;;;;15.45;100.00;96397.00;5052869;28;20409;-74
2023/08/02 01:57:10;;;;;;;2.25;1.60;;;;;;;15.44;100.00;96403.44;4991079;28;20430;-72
2023/08/02 01:59:36;;;;;;;3.95;2.05;;;;;;;15.50;100.00;96398.75;4993362;28;20414;-72
2023/08/02 02:02:03;;;;;;;3.55;1.95;;;;;;;15.46;100.00;96408.47;4993260;28;20488;-72
2023/08/02 02:04:29;;;;;;;3.22;2.13;;;;;;;15.46;100.00;96411.91;4993718;28;20502;-72
2023/08/02 02:06:55;;;;;;;4.37;1.83;;;;;;;15.44;100.00;96389.31;4975723;28;20458;-72
2023/08/02 02:09:22;;;;;;;3.17;2.15;;;;;;;15.44;100.00;96376.75;4993235;28;20414;-72
2023/08/02 02:11:49;;;;;;;3.42;1.77;;;;;;;15.43;100.00;96367.19;4993092;28;20501;-72
2023/08/02 02:14:15;;;;;;;4.22;1.80;;;;;;;15.42;100.00;96364.81;4993079;28;21383;-72
2023/08/02 02:16:41;;;;;;;3.67;1.85;;;;;;;15.42;100.00;96343.47;4992968;28;20406;-71
2023/08/02 02:19:08;;;;;;;2.67;1.60;;;;;;;15.43;100.00;96353.06;4993020;28;20884;-71
2023/08/02 02:21:34;;;;;;;3.28;1.80;;;;;;;15.45;100.00;96361.56;4992841;28;20754;-72
2023/08/02 02:24:00;;;;;;;2.53;1.90;;;;;;;15.46;100.00;96355.91;4993057;28;20422;-72
2023/08/02 02:26:26;;;;;;;5.85;2.40;;;;;;;15.48;100.00;96358.28;4992742;28;20457;-72
2023/08/02 02:28:54;;;;;;;3.10;1.70;;;;;;;15.47;100.00;96352.16;4992922;28;20407;-72
2023/08/02 02:31:20;;;;;;;6.25;2.45;;;;;;;15.48;100.00;96361.75;4992813;28;20418;-72
2023/08/02 02:33:46;;;;;;;4.88;2.22;;;;;;;15.52;100.00;96348.56;4992850;28;20410;-72
2023/08/02 02:36:12;;;;;;;3.73;2.20;;;;;;;15.52;100.00;96342.44;4992861;28;20800;-72
2023/08/02 02:38:38;;;;;;;2.75;2.00;;;;;;;15.54;100.00;96340.28;4992701;28;20411;-72
2023/08/02 02:41:05;;;;;;;2.70;1.65;;;;;;;15.56;100.00;96330.88;4992614;28;20459;-72
2023/08/02 02:43:31;;;;;;;2.13;1.40;;;;;;;15.57;100.00;96326.31;4991555;28;20454;-72
2023/08/02 02:45:58;;;;;;;2.28;1.70;;;;;;;15.58;100.00;96333.22;4992859;28;20429;-72
2023/08/02 02:48:24;;;;;;;2.30;1.60;;;;;;;15.59;100.00;96340.13;4992486;28;20413;-72
2023/08/02 02:50:51;;;;;;;2.33;1.65;;;;;;;15.61;100.00;96336.06;4992596;28;20493;-72
2023/08/02 02:53:20;;;;;;;4.90;2.00;;;;;;;15.62;100.00;96331.53;4992682;28;20494;-72
2023/08/02 02:55:46;;;;;;;3.45;2.10;;;;;;;15.60;100.00;96337.16;4992285;28;20505;-72
2023/08/02 02:58:12;;;;;;;2.70;1.75;;;;;;;15.61;100.00;96335.28;4992204;28;20411;-72
2023/08/02 03:00:38;;;;;;;3.33;1.80;;;;;;;15.60;100.00;96328.38;4974923;28;20928;-72
2023/08/02 03:03:06;;;;;;;4.07;1.88;;;;;;;15.63;100.00;96325.91;4992177;28;20769;-72
2023/08/02 03:05:33;;;;;;;4.23;2.20;;;;;;;15.64;100.00;96315.97;4992130;28;20486;-72
2023/08/02 03:07:59;;;;;;;3.78;1.90;;;;;;;15.62;100.00;96307.53;4992021;28;20395;-72
2023/08/02 03:10:25;;;;;;;3.50;2.00;;;;;;;15.63;100.00;96309.09;4992023;28;20406;-71
2023/08/02 03:12:51;;;;;;;3.28;1.80;;;;;;;15.62;100.00;96310.97;4992154;28;20406;-71
2023/08/02 03:15:17;;;;;;;2.72;1.90;;;;;;;15.61;100.00;96298.72;4991932;28;20477;-71
2023/08/02 03:17:43;;;;;;;2.60;1.80;;;;;;;15.62;100.00;96294.97;4991871;28;20418;-71
2023/08/02 03:20:11;;;;;;;3.35;1.70;;;;;;;15.63;100.00;96303.75;4991912;28;20972;-71
2023/08/02 03:22:38;;;;;;;1.83;1.50;;;;;;;15.62;100.00;96284.31;4983923;28;20458;-71
2023/08/02 03:25:04;;;;;;;3.05;1.80;;;;;;;15.65;100.00;96283.66;4991867;28;20493;-72
2023/08/02 03:27:31;;;;;;;2.10;1.50;;;;;;;15.66;100.00;96289.78;4991619;28;20419;-72
2023/08/02 03:29:57;;;;;;;2.72;1.85;;;;;;;15.66;100.00;96287.91;4991732;28;20413;-72
2023/08/02 03:32:23;;;;;;;2.15;1.58;;;;;;;15.69;100.00;96281.97;4991625;28;20406;-72
2023/08/02 03:34:49;;;;;;;1.97;1.50;;;;;;;15.70;100.00;96275.53;4991651;28;20449;-72
2023/08/02 03:37:17;;;;;;;2.63;1.67;;;;;;;15.73;100.00;96276.78;4991412;28;20923;-72
2023/08/02 03:39:43;;;;;;;2.00;1.50;;;;;;;15.75;100.00;96274.59;4992011;28;20828;-72
2023/08/02 03:42:09;;;;;;;2.63;1.63;;;;;;;15.75;100.00;96272.72;4991469;28;20409;-72
2023/08/02 03:44:35;;;;;;;1.77;1.30;;;;;;;15.78;100.00;96277.44;4991736;28;20415;-72
2023/08/02 03:47:02;;;;;;;2.58;1.80;;;;;;;15.79;100.00;96273.66;4991407;28;20441;-72
2023/08/02 03:49:28;;;;;;;5.10;2.15;;;;;;;15.84;100.00;96264.72;4991332;28;20410;-72
2023/08/02 03:51:54;;;;;;;2.80;1.80;;;;;;;15.85;100.00;96256.41;4991367;28;20781;-72
2023/08/02 03:54:22;;;;;;;2.35;1.92;;;;;;;15.84;100.00;96251.38;4991211;28;20861;-72
2023/08/02 03:56:48;;;;;;;2.88;1.90;;;;;;;15.85;100.00;96243.06;4990966;28;20419;-72
2023/08/02 03:59:14;;;;;;;2.80;1.80;;;;;;;15.85;100.00;96243.06;4991233;28;20411;-72
2023/08/02 04:01:40;;;;;;;3.80;1.98;;;;;;;15.88;100.00;96234.44;4991282;28;20475;-72
2023/08/02 04:04:07;;;;;;;3.10;2.00;;;;;;;15.87;100.00;96222.19;4991207;28;20422;-72
2023/08/02 04:06:33;;;;;;;2.45;2.10;;;;;;;15.86;100.00;96222.50;4990800;28;20971;-72
2023/08/02 04:08:59;;;;;;;3.42;1.80;;;;;;;15.87;100.00;96216.84;4973657;28;20426;-72
2023/08/02 04:11:27;;;;;;;4.05;2.15;;;;;;;15.88;100.00;96214.97;4990974;28;20403;-72
2023/08/02 04:13:54;;;;;;;6.57;2.60;;;;;;;15.93;100.00;96212.16;4991170;28;20410;-72
2023/08/02 04:16:20;;;;;;;3.72;2.15;;;;;;;15.92;100.00;96218.59;4990978;28;20414;-72
2023/08/02 04:18:46;;;;;;;3.97;2.22;;;;;;;15.90;100.00;96217.31;4991064;28;20414;-72
2023/08/02 04:21:18;;;;;;;4.82;2.38;;;;;;;15.89;100.00;96216.53;4973604;28;20414;-72
2023/08/02 04:23:44;;;;;;;3.28;2.00;;;;;;;15.84;100.00;96212.16;4991005;28;20418;-72
2023/08/02 04:26:10;;;;;;;3.15;2.33;;;;;;;15.80;100.00;96213.84;4991036;28;20813;-72
2023/08/02 04:28:38;;;;;;;5.57;2.60;;;;;;;15.71;100.00;96204.28;4990925;28;20406;-72
2023/08/02 04:31:04;;;;;;;4.20;2.10;;;;;;;15.58;100.00;96200.66;4990901;28;20402;-72
2023/08/02 04:33:31;;;;;;;2.65;1.95;;;;;;;15.44;100.00;96195.41;4991005;28;20767;-72
2023/08/02 04:35:59;;;;;;;2.58;2.08;;;;;;;15.33;100.00;96191.47;4991066;28;20410;-72
2023/08/02 04:38:25;;;;;;;4.53;2.30;;;;;;;15.23;100.00;96191.75;4990627;28;20915;-71
2023/08/02 04:40:51;;;;;;;3.40;2.20;;;;;;;15.14;100.00;96190.16;4973392;28;20411;-71
2023/08/02 04:43:18;;;;;;;4.80;2.30;;;;;;;15.06;100.00;96189.81;4990693;28;20418;-71
2023/08/02 04:45:45;;;;;;;5.63;2.67;;;;;;;14.99;100.00;96186.81;4990819;28;20415;-71
2023/08/02 04:48:11;;;;;;;2.20;1.80;;;;;;;14.95;100.00;96175.22;4990652;28;20414;-71
2023/08/02 04:50:38;;;;;;;3.10;2.47;;;;;;;14.90;100.00;96171.88;4990710;28;20445;-71
2023/08/02 04:53:04;;;;;;;3.03;2.05;;;;;;;14.86;100.00;96179.72;4990705;28;20920;-71
2023/08/02 04:55:39;;;;;;;3.47;2.50;;;;;;;14.88;100.00;96168.75;4990493;28;20455;-71
2023/08/02 04:58:05;;;;;;;2.63;2.20;;;;;;;14.86;100.00;96165.59;4990518;28;20438;-71
2023/08/02 05:00:32;;;;;;;3.03;2.60;;;;;;;14.84;100.00;96165.91;4990579;28;20906;-71
2023/08/02 05:02:59;;;;;;;3.37;2.40;;;;;;;14.82;100.00;96161.97;4990525;28;20422;-71
2023/08/02 05:05:25;;;;;;;4.50;2.72;;;;;;;14.81;100.00;96171.09;4990481;28;20411;-71
2023/08/02 05:07:51;;;;;;;3.72;2.53;;;;;;;14.79;100.00;96171.38;4992611;28;20398;-71
2023/08/02 05:10:18;;;;;;;3.55;2.78;;;;;;;14.76;100.00;96174.66;4994421;28;20465;-72
2023/08/02 05:12:44;;;;;;;3.22;2.60;;;;;;;14.73;100.00;96177.94;4994191;28;20924;-73
2023/08/02 05:15:11;;;;;;;3.67;2.60;;;;;;;14.73;100.00;96178.69;4994313;28;20405;-72
2023/08/02 05:17:37;;;;;;;4.10;3.08;;;;;;;14.73;100.00;96174.50;4994076;28;20469;-72
2023/08/02 05:20:06;;;;;;;9.70;4.55;;;;;;;14.77;100.00;96178.09;4994322;28;20409;-72
2023/08/02 05:22:32;;;;;;;9.03;4.67;;;;;;;14.68;100.00;96170.84;4976357;28;20774;-72
2023/08/02 05:24:58;;;;;;;6.72;4.20;;;;;;;14.66;100.00;96165.03;4994179;28;20501;-72
2023/08/02 05:27:24;;;;;;;6.45;4.47;;;;;;;14.65;100.00;96168.03;4993843;28;20425;-72
2023/08/02 05:29:52;;;;;;;7.78;4.78;;;;;;;14.64;100.00;96164.59;4993933;28;20418;-72
2023/08/02 05:32:18;;;;;;;8.05;4.50;;;;;;;14.65;100.00;96154.72;4993767;28;20445;-72
2023/08/02 05:34:45;;;;;;;7.05;4.30;;;;;;;14.62;100.00;96150.78;4993918;28;20413;-72
2023/08/02 05:37:12;;;;;;;9.77;5.05;;;;;;;14.62;100.00;96156.09;4993414;28;20485;-72
2023/08/02 05:39:38;;;;;;;9.17;5.10;;;;;;;14.62;100.00;96155.31;4993850;28;20433;-72
2023/08/02 05:42:05;;;;;;;11.48;5.75;;;;;;;14.58;100.00;96152.50;4993744;28;20418;-72
2023/08/02 05:44:31;;;;;;;9.35;5.38;;;;;;;14.58;100.00;96157.81;4993554;28;20974;-71
2023/08/02 05:46:57;;;;;;;8.60;5.07;;;;;;;14.60;100.00;96157.50;4993491;28;20409;-72
2023/08/02 05:49:23;;;;;;;17.40;5.30;;;;;;;14.61;100.00;96149.19;4993560;28;20410;-72
2023/08/02 05:51:50;;;;;;;9.40;5.35;;;;;;;14.60;100.00;96141.50;4976097;28;20846;-72
2023/08/02 05:54:18;;;;;;;11.63;6.18;;;;;;;14.58;100.00;96133.06;4993518;28;20413;-72
2023/08/02 05:56:44;;;;;;;14.43;6.85;;;;;;;14.54;100.00;96135.53;4993271;28;20414;-72
2023/08/02 05:59:10;;;;;;;17.25;6.85;;;;;;;14.52;100.00;96131.59;4993694;28;20769;-72
2023/08/02 06:01:36;;;;;;;11.07;6.10;;;;;;;14.48;100.00;96135.97;4993480;28;20880;-72
2023/08/02 06:04:03;;;;;;;9.82;5.30;;;;;;;14.48;100.00;96139.44;4993397;28;20414;-72
2023/08/02 06:06:29;;;;;;;8.57;5.07;;;;;;;14.52;100.00;96135.06;4993050;28;20409;-72
2023/08/02 06:08:57;;;;;;;9.50;5.00;;;;;;;14.57;100.00;96147.47;4993251;28;20414;-72
2023/08/02 06:11:25;;;;;;;8.00;4.90;;;;;;;14.58;100.00;96152.50;4993021;28;20410;-72
2023/08/02 06:13:51;;;;;;;10.80;5.47;;;;;;;14.56;100.00;96141.34;4993118;28;20399;-72
2023/08/02 06:16:17;;;;;;;8.55;4.80;;;;;;;14.59;100.00;96137.28;4993268;28;20426;-72
2023/08/02 06:18:43;;;;;;;26.20;8.85;;;;;;;14.56;100.00;96129.91;4992606;28;20406;-72
2023/08/02 06:21:09;;;;;;;29.77;9.50;;;;;;;14.49;100.00;96127.69;4992816;28;20836;-71
2023/08/02 06:23:36;;;;;;;13.85;7.18;;;;;;;14.47;100.00;96129.88;4992873;28;20445;-72
2023/08/02 06:26:02;;;;;;;13.82;6.07;;;;;;;14.50;100.00;96125.81;4993018;28;20468;-72
2023/08/02 06:28:29;;;;;;;11.32;6.00;;;;;;;14.55;100.00;96128.34;4992671;28;20411;-72
2023/08/02 06:30:56;;;;;;;13.07;6.32;;;;;;;14.62;100.00;96116.16;4992689;28;20830;-72
2023/08/02 06:33:22;;;;;;;16.40;6.95;;;;;;;14.68;100.00;96108.81;4992753;28;20407;-72
2023/08/02 06:35:48;;;;;;;26.13;8.80;;;;;;;14.68;100.00;96103.47;4992789;28;20407;-72
2023/08/02 06:38:14;;;;;;;14.52;7.00;;;;;;;14.68;100.00;96100.81;4992309;28;20465;-72
2023/08/02 06:40:40;;;;;;;24.88;8.10;;;;;;;14.72;100.00;96104.44;4992592;28;20410;-72
2023/08/02 06:43:07;;;;;;;17.77;7.77;;;;;;;14.75;100.00;96087.84;4992556;28;20422;-72
2023/08/02 06:45:34;;;;;;;13.05;6.82;;;;;;;14.78;100.00;96084.56;4992430;28;20402;-72
2023/08/02 06:48:00;;;;;;;12.50;6.47;;;;;;;14.86;100.00;96075.03;4992282;28;20414;-72
2023/08/02 06:50:26;;;;;;;13.20;6.20;;;;;;;14.93;100.00;96073.47;4992537;28;20406;-72
2023/08/02 06:52:53;;;;;;;17.93;7.10;;;;;;;14.98;100.00;96067.19;4992298;28;20907;-72
2023/08/02 06:55:19;;;;;;;14.60;6.90;;;;;;;14.97;100.00;96062.97;4992136;28;20745;-72
2023/08/02 06:57:45;;;;;;;16.48;7.50;;;;;;;14.99;100.00;96068.78;4992083;28;20407;-72
2023/08/02 07:00:12;;;;;;;16.52;7.07;;;;;;;15.00;100.00;96073.81;4992115;28;20398;-72
2023/08/02 07:02:40;;;;;;;19.17;6.97;;;;;;;14.99;100.00;96066.09;4992027;28;20793;-72
2023/08/02 07:05:06;;;;;;;19.02;7.47;;;;;;;15.02;100.00;96065.50;4992115;28;20414;-72
2023/08/02 07:07:33;;;;;;;11.67;6.17;;;;;;;15.03;100.00;96065.19;4991923;28;20442;-72
2023/08/02 07:09:59;;;;;;;13.25;6.35;;;;;;;15.04;100.00;96058.75;4992072;28;20796;-72
2023/08/02 07:12:25;;;;;;;13.85;6.38;;;;;;;15.08;100.00;96054.38;4991930;28;20403;-72
2023/08/02 07:14:51;;;;;;;12.65;6.35;;;;;;;15.10;100.00;96054.06;4991966;28;20477;-72
2023/08/02 07:17:17;;;;;;;14.32;6.85;;;;;;;15.15;100.00;96043.25;4991671;28;20793;-72
2023/08/02 07:19:45;;;;;;;13.10;6.22;;;;;;;15.25;100.00;96050.16;4991964;28;20438;-72
2023/08/02 07:22:17;;;;;;;10.65;5.53;;;;;;;15.38;100.00;96046.56;4991811;28;20446;-72
2023/08/02 07:24:43;;;;;;;13.97;6.33;;;;;;;15.47;100.00;96037.47;4991734;28;20502;-71
2023/08/02 07:27:10;;;;;;;24.27;8.18;;;;;;;15.55;100.00;96033.25;4991635;28;20550;-72
2023/08/02 07:29:36;;;;;;;17.20;7.40;;;;;;;15.53;100.00;96014.09;4991070;28;20399;-72
2023/08/02 07:32:02;;;;;;;16.13;6.78;;;;;;;15.56;100.00;96020.69;4974194;28;20427;-73
2023/08/02 07:34:28;;;;;;;12.77;6.32;;;;;;;15.57;100.00;96016.91;4991571;28;20410;-73
2023/08/02 07:36:56;;;;;;;13.00;6.50;;;;;;;15.59;100.00;96007.50;4973935;28;20931;-71
2023/08/02 07:39:22;;;;;;;17.33;6.90;;;;;;;15.56;100.00;96010.81;4991419;28;20410;-72
2023/08/02 07:41:48;;;;;;;14.75;6.93;;;;;;;15.57;100.00;96008.91;4991381;28;20490;-72
2023/08/02 07:44:16;;;;;;;14.20;6.78;;;;;;;15.60;100.00;96001.06;4991280;28;20450;-72
2023/08/02 07:46:42;;;;;;;26.33;8.68;;;;;;;15.53;100.00;95990.09;4991139;28;20781;-71
2023/08/02 07:49:09;;;;;;;20.33;8.00;;;;;;;15.55;100.00;95989.78;4991401;28;20402;-70
2023/08/02 07:51:36;;;;;;;28.58;9.02;;;;;;;15.52;100.00;95987.72;4991340;28;20409;-70
2023/08/02 07:54:03;;;;;;;15.17;7.43;;;;;;;15.54;100.00;95991.66;4991256;28;20403;-71
2023/08/02 07:56:29;;;;;;;26.42;9.43;;;;;;;15.57;100.00;95996.34;4990976;28;20832;-70
2023/08/02 07:58:55;;;;;;;14.55;6.88;;;;;;;15.60;100.00;95987.72;4991239;28;20403;-71
2023/08/02 08:01:22;;;;;;;16.13;7.70;;;;;;;15.65;100.00;95986.78;4990858;28;20494;-71
2023/08/02 08:03:48;;;;;;;18.02;7.93;;;;;;;15.61;100.00;95983.97;4991174;28;20440;-71
2023/08/02 08:06:16;;;;;;;19.60;7.70;;;;;;;15.64;100.00;95985.97;4991077;28;20411;-71
2023/08/02 08:08:42;;;;;;;22.30;8.30;;;;;;;15.65;100.00;95981.44;4990920;28;20472;-71
2023/08/02 08:11:10;;;;;;;23.35;8.45;;;;;;;15.61;100.00;95978.63;4991315;28;20418;-72
2023/08/02 08:13:37;;;;;;;24.95;8.85;;;;;;;15.56;100.00;95973.47;4991101;28;20415;-71
2023/08/02 08:16:03;;;;;;;22.55;7.90;;;;;;;15.61;100.00;95970.63;4991169;28;20824;-71
2023/08/02 08:18:33;;;;;;;24.27;8.60;;;;;;;15.65;100.00;95960.09;4990925;28;20417;-71
2023/08/02 08:21:04;;;;;;;17.20;7.90;;;;;;;15.72;100.00;95953.16;4973442;28;20501;-71
2023/08/02 08:23:30;;;;;;;22.35;8.60;;;;;;;15.75;100.00;95947.22;4990867;28;20418;-72
2023/08/02 08:25:56;;;;;;;20.53;7.90;;;;;;;15.75;100.00;95941.88;4990890;28;20915;-72
2023/08/02 08:28:24;;;;;;;17.70;7.43;;;;;;;15.84;100.00;95953.31;4990930;28;20413;-71
2023/08/02 08:30:58;;;;;;;23.52;8.30;;;;;;;15.76;100.00;95950.66;4990957;28;20497;-72
2023/08/02 08:33:24;;;;;;;18.10;7.60;;;;;;;15.81;100.00;95937.94;4990756;28;20510;-71
2023/08/02 08:35:50;;;;;;;17.95;7.55;;;;;;;15.88;100.00;95940.88;4990959;28;20434;-71
2023/08/02 08:38:17;;;;;;;25.73;8.93;;;;;;;15.86;100.00;95937.75;4990785;28;20448;-71
2023/08/02 08:40:49;;;;;;;19.77;7.57;;;;;;;15.89;100.00;95939.00;4991369;28;20410;-71
2023/08/02 08:43:16;;;;;;;19.10;7.38;;;;;;;15.87;100.00;95941.19;4994767;28;20428;-72
2023/08/02 08:45:45;;;;;;;19.98;8.10;;;;;;;15.84;100.00;95934.63;4977236;28;20420;-71
2023/08/02 08:48:12;;;;;;;24.70;8.38;;;;;;;15.83;100.00;95922.38;4994524;28;20406;-71
2023/08/02 08:50:40;;;;;;;16.42;6.88;;;;;;;15.93;100.00;95933.81;4994509;28;20493;-72
2023/08/02 08:53:14;;;;;;;25.87;8.20;;;;;;;15.85;100.00;95917.53;4994462;28;20402;-71
2023/08/02 08:55:41;;;;;;;17.20;7.05;;;;;;;15.91;100.00;95912.78;4994419;28;20465;-72
2023/08/02 08:58:08;;;;;;;23.45;7.57;;;;;;;15.98;100.00;95926.41;4994627;28;20402;-71
2023/08/02 09:00:35;;;;;;;20.23;7.73;;;;;;;15.90;100.00;95923.78;4994385;28;20438;-71
2023/08/02 09:03:04;;;;;;;14.50;6.50;;;;;;;15.97;100.00;95914.16;4994506;28;20422;-71
2023/08/02 09:05:31;;;;;;;27.25;8.50;;;;;;;15.87;100.00;95909.97;4994397;28;20850;-72
2023/08/02 09:07:58;;;;;;;18.70;6.97;;;;;;;15.95;100.00;95916.34;4994198;28;20489;-72
2023/08/02 09:10:25;;;;;;;19.45;7.43;;;;;;;15.92;100.00;95908.22;4994336;28;20608;-71
2023/08/02 09:12:51;;;;;;;16.48;6.35;;;;;;;15.96;100.00;95907.25;4994241;28;20429;-71
2023/08/02 09:15:18;;;;;;;12.43;5.80;;;;;;;16.03;100.00;95901.41;4994072;28;20438;-71
2023/08/02 09:17:49;;;;;;;20.43;7.17;;;;;;;16.08;100.00;95907.38;4994051;28;20419;-71
2023/08/02 09:20:20;;;;;;;18.17;6.88;;;;;;;16.15;100.00;95904.19;4994118;28;20414;-71
2023/08/02 09:22:46;;;;;;;14.93;6.53;;;;;;;16.20;100.00;95904.78;4993886;28;20994;-71
2023/08/02 09:25:24;;;;;;;20.00;7.30;;;;;;;16.20;100.00;95893.31;4994089;28;20414;-72
2023/08/02 09:27:51;;;;;;;17.15;6.75;;;;;;;16.20;100.00;95893.31;4993865;28;20398;-72
2023/08/02 09:30:25;;;;;;;14.00;6.25;;;;;;;16.26;100.00;95889.34;4993891;28;20415;-71
2023/08/02 09:33:00;;;;;;;17.02;6.82;;;;;;;16.33;100.00;95886.94;4993835;28;20812;-71
2023/08/02 09:35:27;;;;;;;12.32;6.40;;;;;;;16.41;100.00;95886.13;4993754;28;20407;-71
2023/08/02 09:37:54;;;;;;;16.00;7.57;;;;;;;16.42;100.00;95874.34;4993701;28;20465;-72
2023/08/02 09:40:32;;;;;;;16.25;7.07;;;;;;;16.56;100.00;95869.50;4993780;28;20410;-71
2023/08/02 09:43:00;;;;;;;15.48;6.93;;;;;;;16.66;100.00;95856.91;4993675;28;20489;-72
2023/08/02 09:45:32;;;;;;;16.55;6.88;;;;;;;16.66;100.00;95857.69;4993666;28;20431;-72
2023/08/02 09:47:58;;;;;;;9.52;5.57;;;;;;;16.74;100.00;95861.41;4993537;28;20486;-72
2023/08/02 09:50:24;;;;;;;12.15;5.85;;;;;;;16.81;100.00;95848.28;4993583;28;20440;-72
2023/08/02 09:52:52;;;;;;;12.98;6.40;;;;;;;16.84;100.00;95851.06;4992855;28;20406;-72
2023/08/02 09:55:18;;;;;;;17.20;6.30;;;;;;;16.86;100.00;95856.88;4993377;28;20445;-72
2023/08/02 09:57:47;;;;;;;12.40;6.03;;;;;;;16.95;100.00;95856.81;4993520;28;20402;-72
2023/08/02 10:00:14;;;;;;;12.60;6.20;;;;;;;16.93;100.00;95851.00;4993442;28;20497;-72
2023/08/02 10:02:41;;;;;;;17.45;6.85;;;;;;;16.99;100.00;95847.78;4975731;28;20414;-72
2023/08/02 10:05:12;;;;;;;14.87;6.43;;;;;;;17.05;100.00;95848.38;4993343;28;20493;-72
2023/08/02 10:07:43;;;;;;;10.70;6.00;;;;;;;17.07;100.00;95840.00;4993136;28;20825;-72
2023/08/02 10:10:15;;;;;;;12.68;6.10;;;;;;;17.29;100.00;95832.38;4993279;28;20402;-72
2023/08/02 10:12:42;;;;;;;11.88;5.88;;;;;;;17.46;100.00;95814.59;4985807;28;20486;-72
2023/08/02 10:15:09;;;;;;;12.70;5.40;;;;;;;17.59;100.00;95821.53;4993201;28;20908;-71
2023/08/02 10:17:36;;;;;;;13.88;6.68;;;;;;;17.59;100.00;95824.22;4993006;28;20414;-71
2023/08/02 10:20:04;;;;;;;11.43;6.10;;;;;;;17.60;100.00;95810.47;4993218;28;20410;-71
2023/08/02 10:22:31;;;;;;;15.68;6.85;;;;;;;17.57;100.00;95818.41;4993022;28;20406;-71
2023/08/02 10:24:59;;;;;;;10.93;5.43;;;;;;;17.55;100.00;95812.59;4993002;28;20446;-71
2023/08/02 10:27:28;;;;;;;15.23;6.68;;;;;;;17.41;100.00;95812.91;4992739;28;20442;-71
2023/08/02 10:29:55;;;;;;;9.90;6.30;;;;;;;17.44;100.00;95803.47;4992984;28;20426;-71
2023/08/02 10:32:21;;;;;;;10.30;5.72;;;;;;;17.44;100.00;95800.78;4992677;28;20398;-71
2023/08/02 10:34:49;;;;;;;13.27;6.43;;;;;;;17.38;100.00;95802.88;4992943;28;20892;-71
2023/08/02 10:37:18;;;;;;;14.15;6.95;;;;;;;17.26;100.00;95800.19;4992550;28;20426;-71
2023/08/02 10:39:54;;;;;;;12.68;6.60;;;;;;;17.18;100.00;95785.81;4992600;28;20477;-71
2023/08/02 10:42:22;;;;;;;13.60;6.90;;;;;;;17.25;100.00;95782.59;4992541;28;20576;-71
2023/08/02 10:45:24;;;;;;;13.23;6.63;;;;;;;17.19;100.00;95787.38;4992536;28;20913;-71
2023/08/02 10:47:50;;;;;;;15.40;6.88;;;;;;;17.19;100.00;95787.38;4932397;29;20482;-71
2023/08/02 10:50:45;;;;;;;12.35;6.45;;;;;;;17.20;100.00;95788.94;4980271;28;20422;-71
2023/08/02 10:53:12;;;;;;;11.27;5.90;;;;;;;17.24;100.00;95781.00;4978735;28;20413;-71
2023/08/02 10:56:02;;;;;;;13.50;6.10;;;;;;;17.33;100.00;95777.13;4992236;28;20429;-71
2023/08/02 10:58:45;;;;;;;15.45;7.25;;;;;;;17.54;100.00;95765.53;4992020;28;20502;-71
2023/08/02 11:01:13;;;;;;;16.80;7.00;;;;;;;17.55;100.00;95759.09;4992250;28;20407;-71
2023/08/02 11:03:39;;;;;;;11.52;6.50;;;;;;;17.74;100.00;95756.66;4992209;28;20414;-71
2023/08/02 11:06:06;;;;;;;9.25;5.60;;;;;;;17.78;100.00;95754.88;4974061;28;20406;-71
2023/08/02 11:08:45;;;;;;;14.27;6.50;;;;;;;17.73;100.00;95761.25;4992141;28;20421;-71
2023/08/02 11:11:11;;;;;;;9.93;5.63;;;;;;;17.89;100.00;95749.84;4992008;28;20434;-71
2023/08/02 11:13:40;;;;;;;8.10;5.47;;;;;;;17.94;100.00;95760.31;4992273;28;20490;-71
2023/08/02 11:16:06;;;;;;;11.30;6.35;;;;;;;18.04;100.00;95751.81;4992132;28;20549;-71
2023/08/02 11:18:34;;;;;;;7.60;5.03;;;;;;;17.98;100.00;95755.81;4991708;28;20426;-71
2023/08/02 11:21:11;;;;;;;7.63;5.38;;;;;;;18.04;100.00;95746.47;4991801;28;20410;-71
2023/08/02 11:23:37;;;;;;;9.50;5.28;;;;;;;18.17;100.00;95739.94;4991783;28;20426;-71
2023/08/02 11:26:16;;;;;;;10.18;6.35;;;;;;;18.43;100.00;95729.59;5087823;28;20440;-70